sensor_id;sensor_type;location;lat;lon;timestamp;temperature;humidity
32217;DHT22;67098;51.140;4.088;2024-01-11T00:00:16;0.30;82.30
32217;DHT22;67098;51.140;4.088;2024-01-11T00:02:42;0.30;82.60
32217;DHT22;67098;51.140;4.088;2024-01-11T00:05:09;0.40;82.70
32217;DHT22;67098;51.140;4.088;2024-01-11T00:07:35;0.40;82.60
32217;DHT22;67098;51.140;4.088;2024-01-11T00:10:01;0.20;83.30
32217;DHT22;67098;51.140;4.088;2024-01-11T00:12:27;0.30;83.30
32217;DHT22;67098;51.140;4.088;2024-01-11T00:14:53;0.40;83.30
32217;DHT22;67098;51.140;4.088;2024-01-11T00:17:19;0.40;83.20
32217;DHT22;67098;51.140;4.088;2024-01-11T00:19:44;0.40;83.40
32217;DHT22;67098;51.140;4.088;2024-01-11T00:22:10;0.40;83.80
32217;DHT22;67098;51.140;4.088;2024-01-11T00:24:36;0.40;83.70
32217;DHT22;67098;51.140;4.088;2024-01-11T00:27:02;0.40;83.20
32217;DHT22;67098;51.140;4.088;2024-01-11T00:29:27;0.40;83.30
32217;DHT22;67098;51.140;4.088;2024-01-11T00:31:54;0.40;83.30
32217;DHT22;67098;51.140;4.088;2024-01-11T00:34:20;0.40;83.70
32217;DHT22;67098;51.140;4.088;2024-01-11T00:36:47;0.40;84.00
32217;DHT22;67098;51.140;4.088;2024-01-11T00:39:13;0.40;83.90
32217;DHT22;67098;51.140;4.088;2024-01-11T00:41:39;0.40;83.70
32217;DHT22;67098;51.140;4.088;2024-01-11T00:44:04;0.40;83.70
32217;DHT22;67098;51.140;4.088;2024-01-11T00:46:30;0.30;83.90
32217;DHT22;67098;51.140;4.088;2024-01-11T00:48:56;0.30;84.50
32217;DHT22;67098;51.140;4.088;2024-01-11T00:51:22;0.20;84.70
32217;DHT22;67098;51.140;4.088;2024-01-11T00:53:48;0.20;84.70
32217;DHT22;67098;51.140;4.088;2024-01-11T00:56:17;0.30;84.60
32217;DHT22;67098;51.140;4.088;2024-01-11T00:58:43;0.30;84.40
32217;DHT22;67098;51.140;4.088;2024-01-11T01:01:09;0.40;84.50
32217;DHT22;67098;51.140;4.088;2024-01-11T01:03:36;0.40;84.50
32217;DHT22;67098;51.140;4.088;2024-01-11T01:06:02;0.40;84.40
32217;DHT22;67098;51.140;4.088;2024-01-11T01:08:28;0.30;84.60
32217;DHT22;67098;51.140;4.088;2024-01-11T01:10:54;0.30;84.70
32217;DHT22;67098;51.140;4.088;2024-01-11T01:13:20;0.30;84.60
32217;DHT22;67098;51.140;4.088;2024-01-11T01:15:46;0.30;84.50
32217;DHT22;67098;51.140;4.088;2024-01-11T01:18:11;0.30;84.60
32217;DHT22;67098;51.140;4.088;2024-01-11T01:20:37;0.30;84.40
32217;DHT22;67098;51.140;4.088;2024-01-11T01:23:03;0.20;84.60
32217;DHT22;67098;51.140;4.088;2024-01-11T01:25:29;0.20;84.80
32217;DHT22;67098;51.140;4.088;2024-01-11T01:27:56;0.20;84.70
32217;DHT22;67098;51.140;4.088;2024-01-11T01:30:22;0.10;84.90
32217;DHT22;67098;51.140;4.088;2024-01-11T01:32:48;0.10;85.10
32217;DHT22;67098;51.140;4.088;2024-01-11T01:35:14;0.10;85.10
32217;DHT22;67098;51.140;4.088;2024-01-11T01:37:40;0.20;84.70
32217;DHT22;67098;51.140;4.088;2024-01-11T01:40:06;0.20;84.20
32217;DHT22;67098;51.140;4.088;2024-01-11T01:42:33;0.20;84.40
32217;DHT22;67098;51.140;4.088;2024-01-11T01:44:59;0.20;84.00
32217;DHT22;67098;51.140;4.088;2024-01-11T01:47:26;0.20;84.20
32217;DHT22;67098;51.140;4.088;2024-01-11T01:49:52;0.20;84.80
32217;DHT22;67098;51.140;4.088;2024-01-11T01:52:19;0.20;84.30
32217;DHT22;67098;51.140;4.088;2024-01-11T01:54:46;0.20;84.30
32217;DHT22;67098;51.140;4.088;2024-01-11T01:57:13;0.10;84.50
32217;DHT22;67098;51.140;4.088;2024-01-11T01:59:39;-0.10;85.00
32217;DHT22;67098;51.140;4.088;2024-01-11T02:02:06;0.00;85.10
32217;DHT22;67098;51.140;4.088;2024-01-11T02:04:32;0.10;84.80
32217;DHT22;67098;51.140;4.088;2024-01-11T02:06:58;0.10;84.90
32217;DHT22;67098;51.140;4.088;2024-01-11T02:09:24;0.10;84.90
32217;DHT22;67098;51.140;4.088;2024-01-11T02:11:52;0.00;85.10
32217;DHT22;67098;51.140;4.088;2024-01-11T02:14:19;-0.20;85.50
32217;DHT22;67098;51.140;4.088;2024-01-11T02:16:45;-0.10;85.20
32217;DHT22;67098;51.140;4.088;2024-01-11T02:19:13;0.00;84.80
32217;DHT22;67098;51.140;4.088;2024-01-11T02:21:43;0.00;85.00
32217;DHT22;67098;51.140;4.088;2024-01-11T02:24:09;0.00;84.90
32217;DHT22;67098;51.140;4.088;2024-01-11T02:26:35;0.00;84.90
32217;DHT22;67098;51.140;4.088;2024-01-11T02:29:01;-0.10;85.20
32217;DHT22;67098;51.140;4.088;2024-01-11T02:31:27;-0.10;85.50
32217;DHT22;67098;51.140;4.088;2024-01-11T02:33:54;-0.20;85.60
32217;DHT22;67098;51.140;4.088;2024-01-11T02:36:21;-0.10;85.30
32217;DHT22;67098;51.140;4.088;2024-01-11T02:38:47;-0.10;85.50
32217;DHT22;67098;51.140;4.088;2024-01-11T02:41:18;-0.20;85.60
32217;DHT22;67098;51.140;4.088;2024-01-11T02:43:50;-0.20;85.80
32217;DHT22;67098;51.140;4.088;2024-01-11T02:46:17;-0.20;86.00
32217;DHT22;67098;51.140;4.088;2024-01-11T02:48:43;-0.30;85.90
32217;DHT22;67098;51.140;4.088;2024-01-11T02:51:09;-0.20;85.90
32217;DHT22;67098;51.140;4.088;2024-01-11T02:53:35;-0.30;86.00
32217;DHT22;67098;51.140;4.088;2024-01-11T02:56:01;-0.30;86.20
32217;DHT22;67098;51.140;4.088;2024-01-11T02:58:27;-0.40;86.60
32217;DHT22;67098;51.140;4.088;2024-01-11T03:00:53;-0.40;86.90
32217;DHT22;67098;51.140;4.088;2024-01-11T03:03:19;-0.40;86.90
32217;DHT22;67098;51.140;4.088;2024-01-11T03:05:44;-0.40;86.70
32217;DHT22;67098;51.140;4.088;2024-01-11T03:08:10;-0.40;87.00
32217;DHT22;67098;51.140;4.088;2024-01-11T03:10:39;-0.40;86.80
32217;DHT22;67098;51.140;4.088;2024-01-11T03:13:06;-0.50;86.70
32217;DHT22;67098;51.140;4.088;2024-01-11T03:15:33;-0.50;86.80
32217;DHT22;67098;51.140;4.088;2024-01-11T03:17:58;-0.60;86.90
32217;DHT22;67098;51.140;4.088;2024-01-11T03:20:24;-0.50;86.90
32217;DHT22;67098;51.140;4.088;2024-01-11T03:22:51;-0.40;86.40
32217;DHT22;67098;51.140;4.088;2024-01-11T03:25:19;-0.40;86.30
32217;DHT22;67098;51.140;4.088;2024-01-11T03:27:45;-0.40;86.30
32217;DHT22;67098;51.140;4.088;2024-01-11T03:30:11;-0.50;86.70
32217;DHT22;67098;51.140;4.088;2024-01-11T03:32:38;-0.60;86.90
32217;DHT22;67098;51.140;4.088;2024-01-11T03:35:07;-0.50;86.50
32217;DHT22;67098;51.140;4.088;2024-01-11T03:37:33;-0.50;86.60
32217;DHT22;67098;51.140;4.088;2024-01-11T03:39:59;-0.50;86.30
32217;DHT22;67098;51.140;4.088;2024-01-11T03:42:25;-0.50;87.00
32217;DHT22;67098;51.140;4.088;2024-01-11T03:44:51;-0.50;86.70
32217;DHT22;67098;51.140;4.088;2024-01-11T03:47:17;-0.50;86.20
32217;DHT22;67098;51.140;4.088;2024-01-11T03:49:43;-0.40;86.00
32217;DHT22;67098;51.140;4.088;2024-01-11T03:52:08;-0.40;86.20
32217;DHT22;67098;51.140;4.088;2024-01-11T03:54:34;-0.50;86.40
32217;DHT22;67098;51.140;4.088;2024-01-11T03:57:00;-0.50;86.30
32217;DHT22;67098;51.140;4.088;2024-01-11T03:59:26;-0.50;86.70
32217;DHT22;67098;51.140;4.088;2024-01-11T04:01:51;-0.50;86.60
32217;DHT22;67098;51.140;4.088;2024-01-11T04:04:18;-0.60;86.80
32217;DHT22;67098;51.140;4.088;2024-01-11T04:06:44;-0.60;86.90
32217;DHT22;67098;51.140;4.088;2024-01-11T04:09:10;-0.60;87.20
32217;DHT22;67098;51.140;4.088;2024-01-11T04:11:36;-0.60;87.30
32217;DHT22;67098;51.140;4.088;2024-01-11T04:14:02;-0.60;87.10
32217;DHT22;67098;51.140;4.088;2024-01-11T04:16:28;-0.60;87.20
32217;DHT22;67098;51.140;4.088;2024-01-11T04:18:54;-0.70;87.20
32217;DHT22;67098;51.140;4.088;2024-01-11T04:21:27;-0.70;87.50
32217;DHT22;67098;51.140;4.088;2024-01-11T04:23:56;-0.70;87.20
32217;DHT22;67098;51.140;4.088;2024-01-11T04:26:22;-0.80;87.40
32217;DHT22;67098;51.140;4.088;2024-01-11T04:28:49;-0.80;87.60
32217;DHT22;67098;51.140;4.088;2024-01-11T04:31:16;-0.80;87.80
32217;DHT22;67098;51.140;4.088;2024-01-11T04:33:43;-0.80;87.90
32217;DHT22;67098;51.140;4.088;2024-01-11T04:36:09;-0.80;87.90
32217;DHT22;67098;51.140;4.088;2024-01-11T04:38:36;-0.70;88.10
32217;DHT22;67098;51.140;4.088;2024-01-11T04:41:12;-0.70;88.10
32217;DHT22;67098;51.140;4.088;2024-01-11T04:43:39;-0.80;88.20
32217;DHT22;67098;51.140;4.088;2024-01-11T04:48:40;-0.80;88.70
32217;DHT22;67098;51.140;4.088;2024-01-11T04:51:06;-0.80;88.80
32217;DHT22;67098;51.140;4.088;2024-01-11T04:53:31;-0.70;88.80
32217;DHT22;67098;51.140;4.088;2024-01-11T04:55:57;-0.70;88.70
32217;DHT22;67098;51.140;4.088;2024-01-11T04:58:23;-0.70;88.70
32217;DHT22;67098;51.140;4.088;2024-01-11T05:00:49;-0.70;89.00
32217;DHT22;67098;51.140;4.088;2024-01-11T05:03:15;-0.70;88.90
32217;DHT22;67098;51.140;4.088;2024-01-11T05:05:41;-0.70;89.00
32217;DHT22;67098;51.140;4.088;2024-01-11T05:08:06;-0.60;89.10
32217;DHT22;67098;51.140;4.088;2024-01-11T05:10:32;-0.60;89.10
32217;DHT22;67098;51.140;4.088;2024-01-11T05:12:58;-0.60;89.00
32217;DHT22;67098;51.140;4.088;2024-01-11T05:15:24;-0.60;88.90
32217;DHT22;67098;51.140;4.088;2024-01-11T05:17:50;-0.60;89.20
32217;DHT22;67098;51.140;4.088;2024-01-11T05:20:16;-0.60;89.10
32217;DHT22;67098;51.140;4.088;2024-01-11T05:22:42;-0.60;89.00
32217;DHT22;67098;51.140;4.088;2024-01-11T05:25:08;-0.60;89.10
32217;DHT22;67098;51.140;4.088;2024-01-11T05:27:34;-0.60;88.90
32217;DHT22;67098;51.140;4.088;2024-01-11T05:30:00;-0.60;88.90
32217;DHT22;67098;51.140;4.088;2024-01-11T05:32:25;-0.60;88.80
32217;DHT22;67098;51.140;4.088;2024-01-11T05:34:51;-0.70;89.00
32217;DHT22;67098;51.140;4.088;2024-01-11T05:37:17;-0.60;89.20
32217;DHT22;67098;51.140;4.088;2024-01-11T05:39:43;-0.70;89.30
32217;DHT22;67098;51.140;4.088;2024-01-11T05:42:08;-0.70;89.50
32217;DHT22;67098;51.140;4.088;2024-01-11T05:44:34;-0.80;89.90
32217;DHT22;67098;51.140;4.088;2024-01-11T05:47:00;-0.80;90.00
32217;DHT22;67098;51.140;4.088;2024-01-11T05:49:25;-0.80;90.20
32217;DHT22;67098;51.140;4.088;2024-01-11T05:51:51;-0.80;90.10
32217;DHT22;67098;51.140;4.088;2024-01-11T05:54:17;-0.70;90.00
32217;DHT22;67098;51.140;4.088;2024-01-11T05:56:43;-0.60;89.60
32217;DHT22;67098;51.140;4.088;2024-01-11T05:59:08;-0.60;89.60
32217;DHT22;67098;51.140;4.088;2024-01-11T06:01:40;-0.70;89.70
32217;DHT22;67098;51.140;4.088;2024-01-11T06:04:06;-0.70;90.00
32217;DHT22;67098;51.140;4.088;2024-01-11T06:06:32;-0.80;90.10
32217;DHT22;67098;51.140;4.088;2024-01-11T06:08:58;-0.80;90.20
32217;DHT22;67098;51.140;4.088;2024-01-11T06:11:24;-0.80;90.20
32217;DHT22;67098;51.140;4.088;2024-01-11T06:13:49;-0.80;90.20
32217;DHT22;67098;51.140;4.088;2024-01-11T06:16:15;-0.80;90.40
32217;DHT22;67098;51.140;4.088;2024-01-11T06:18:41;-0.80;90.20
32217;DHT22;67098;51.140;4.088;2024-01-11T06:21:07;-0.80;90.20
32217;DHT22;67098;51.140;4.088;2024-01-11T06:23:32;-0.80;90.20
32217;DHT22;67098;51.140;4.088;2024-01-11T06:25:58;-0.80;90.20
32217;DHT22;67098;51.140;4.088;2024-01-11T06:28:24;-0.80;90.00
32217;DHT22;67098;51.140;4.088;2024-01-11T06:30:50;-0.90;90.10
32217;DHT22;67098;51.140;4.088;2024-01-11T06:33:15;-0.80;90.10
32217;DHT22;67098;51.140;4.088;2024-01-11T06:35:41;-0.80;89.90
32217;DHT22;67098;51.140;4.088;2024-01-11T06:38:07;-0.90;90.10
32217;DHT22;67098;51.140;4.088;2024-01-11T06:40:33;-0.90;89.60
32217;DHT22;67098;51.140;4.088;2024-01-11T06:42:59;-0.90;89.60
32217;DHT22;67098;51.140;4.088;2024-01-11T06:45:24;-0.90;89.30
32217;DHT22;67098;51.140;4.088;2024-01-11T06:47:50;-0.90;89.40
32217;DHT22;67098;51.140;4.088;2024-01-11T06:50:16;-1.00;89.50
32217;DHT22;67098;51.140;4.088;2024-01-11T06:52:42;-1.00;89.50
32217;DHT22;67098;51.140;4.088;2024-01-11T06:55:08;-1.00;89.50
32217;DHT22;67098;51.140;4.088;2024-01-11T06:57:34;-1.00;89.50
32217;DHT22;67098;51.140;4.088;2024-01-11T07:00:00;-1.00;89.30
32217;DHT22;67098;51.140;4.088;2024-01-11T07:02:26;-1.00;89.30
32217;DHT22;67098;51.140;4.088;2024-01-11T07:04:51;-1.10;89.50
32217;DHT22;67098;51.140;4.088;2024-01-11T07:07:17;-1.20;89.60
32217;DHT22;67098;51.140;4.088;2024-01-11T07:09:43;-1.30;89.50
32217;DHT22;67098;51.140;4.088;2024-01-11T07:12:10;-1.20;89.60
32217;DHT22;67098;51.140;4.088;2024-01-11T07:14:36;-1.30;89.70
32217;DHT22;67098;51.140;4.088;2024-01-11T07:17:01;-1.30;89.70
32217;DHT22;67098;51.140;4.088;2024-01-11T07:19:29;-1.30;89.80
32217;DHT22;67098;51.140;4.088;2024-01-11T07:21:55;-1.20;89.10
32217;DHT22;67098;51.140;4.088;2024-01-11T07:24:21;-1.10;88.40
32217;DHT22;67098;51.140;4.088;2024-01-11T07:26:46;-1.10;88.40
32217;DHT22;67098;51.140;4.088;2024-01-11T07:29:12;-1.10;88.20
32217;DHT22;67098;51.140;4.088;2024-01-11T07:31:38;-1.30;88.70
32217;DHT22;67098;51.140;4.088;2024-01-11T07:34:04;-1.20;88.60
32217;DHT22;67098;51.140;4.088;2024-01-11T07:36:30;-1.20;88.50
32217;DHT22;67098;51.140;4.088;2024-01-11T07:38:56;-1.30;88.50
32217;DHT22;67098;51.140;4.088;2024-01-11T07:41:22;-1.20;88.30
32217;DHT22;67098;51.140;4.088;2024-01-11T07:43:48;-1.30;88.40
32217;DHT22;67098;51.140;4.088;2024-01-11T07:46:13;-1.50;88.70
32217;DHT22;67098;51.140;4.088;2024-01-11T07:48:39;-1.50;89.50
32217;DHT22;67098;51.140;4.088;2024-01-11T07:51:05;-1.50;90.10
32217;DHT22;67098;51.140;4.088;2024-01-11T07:53:31;-1.40;89.30
32217;DHT22;67098;51.140;4.088;2024-01-11T07:55:57;-1.30;89.20
32217;DHT22;67098;51.140;4.088;2024-01-11T07:58:23;-1.40;89.40
32217;DHT22;67098;51.140;4.088;2024-01-11T08:00:49;-1.30;89.10
32217;DHT22;67098;51.140;4.088;2024-01-11T08:03:15;-1.20;89.40
32217;DHT22;67098;51.140;4.088;2024-01-11T08:05:41;-1.20;88.50
32217;DHT22;67098;51.140;4.088;2024-01-11T08:08:08;-1.20;89.00
32217;DHT22;67098;51.140;4.088;2024-01-11T08:10:34;-1.30;88.80
32217;DHT22;67098;51.140;4.088;2024-01-11T08:13:00;-1.20;88.60
32217;DHT22;67098;51.140;4.088;2024-01-11T08:15:26;-1.20;89.20
32217;DHT22;67098;51.140;4.088;2024-01-11T08:17:52;-1.20;89.10
32217;DHT22;67098;51.140;4.088;2024-01-11T08:20:18;-1.20;89.30
32217;DHT22;67098;51.140;4.088;2024-01-11T08:22:45;-1.30;89.70
32217;DHT22;67098;51.140;4.088;2024-01-11T08:25:12;-1.20;89.60
32217;DHT22;67098;51.140;4.088;2024-01-11T08:27:40;-1.10;89.70
32217;DHT22;67098;51.140;4.088;2024-01-11T08:30:06;-1.10;89.90
32217;DHT22;67098;51.140;4.088;2024-01-11T08:32:33;-1.10;89.90
32217;DHT22;67098;51.140;4.088;2024-01-11T08:35:05;-1.10;90.30
32217;DHT22;67098;51.140;4.088;2024-01-11T08:37:31;-1.10;90.60
32217;DHT22;67098;51.140;4.088;2024-01-11T08:39:57;-1.10;90.90
32217;DHT22;67098;51.140;4.088;2024-01-11T08:42:23;-1.00;90.60
32217;DHT22;67098;51.140;4.088;2024-01-11T08:44:49;-0.90;90.60
32217;DHT22;67098;51.140;4.088;2024-01-11T08:47:15;-0.90;90.60
32217;DHT22;67098;51.140;4.088;2024-01-11T08:49:41;-0.90;90.80
32217;DHT22;67098;51.140;4.088;2024-01-11T08:52:07;-0.90;90.80
32217;DHT22;67098;51.140;4.088;2024-01-11T08:54:34;-0.90;91.10
32217;DHT22;67098;51.140;4.088;2024-01-11T08:57:00;-0.90;91.10
32217;DHT22;67098;51.140;4.088;2024-01-11T08:59:27;-0.90;91.40
32217;DHT22;67098;51.140;4.088;2024-01-11T09:01:52;-0.90;91.40
32217;DHT22;67098;51.140;4.088;2024-01-11T09:04:18;-0.90;91.50
32217;DHT22;67098;51.140;4.088;2024-01-11T09:06:44;-0.80;91.70
32217;DHT22;67098;51.140;4.088;2024-01-11T09:09:11;-0.80;91.80
32217;DHT22;67098;51.140;4.088;2024-01-11T09:11:39;-0.80;91.80
32217;DHT22;67098;51.140;4.088;2024-01-11T09:14:06;-0.90;92.00
32217;DHT22;67098;51.140;4.088;2024-01-11T09:16:32;-0.80;92.20
32217;DHT22;67098;51.140;4.088;2024-01-11T09:18:58;-0.70;92.10
32217;DHT22;67098;51.140;4.088;2024-01-11T09:21:26;-0.70;92.00
32217;DHT22;67098;51.140;4.088;2024-01-11T09:23:52;-0.60;92.10
32217;DHT22;67098;51.140;4.088;2024-01-11T09:26:18;-0.60;92.20
32217;DHT22;67098;51.140;4.088;2024-01-11T09:28:43;-0.60;92.20
32217;DHT22;67098;51.140;4.088;2024-01-11T09:31:11;-0.60;92.30
32217;DHT22;67098;51.140;4.088;2024-01-11T09:33:38;-0.50;92.30
32217;DHT22;67098;51.140;4.088;2024-01-11T09:36:04;-0.50;92.40
32217;DHT22;67098;51.140;4.088;2024-01-11T09:38:30;-0.50;92.40
32217;DHT22;67098;51.140;4.088;2024-01-11T09:41:09;-0.40;92.50
32217;DHT22;67098;51.140;4.088;2024-01-11T09:43:36;-0.40;92.50
32217;DHT22;67098;51.140;4.088;2024-01-11T09:46:06;-0.40;92.60
32217;DHT22;67098;51.140;4.088;2024-01-11T09:48:37;-0.40;92.60
32217;DHT22;67098;51.140;4.088;2024-01-11T09:51:05;-0.30;92.60
32217;DHT22;67098;51.140;4.088;2024-01-11T09:53:33;-0.30;92.50
32217;DHT22;67098;51.140;4.088;2024-01-11T09:56:00;-0.20;92.60
32217;DHT22;67098;51.140;4.088;2024-01-11T09:58:26;-0.20;92.60
32217;DHT22;67098;51.140;4.088;2024-01-11T10:00:56;-0.20;92.70
32217;DHT22;67098;51.140;4.088;2024-01-11T10:03:25;-0.40;93.70
32217;DHT22;67098;51.140;4.088;2024-01-11T10:05:56;-0.40;93.70
32217;DHT22;67098;51.140;4.088;2024-01-11T10:08:22;-0.20;93.50
32217;DHT22;67098;51.140;4.088;2024-01-11T10:10:48;-0.10;93.30
32217;DHT22;67098;51.140;4.088;2024-01-11T10:13:17;0.00;93.20
32217;DHT22;67098;51.140;4.088;2024-01-11T10:15:43;0.10;93.00
32217;DHT22;67098;51.140;4.088;2024-01-11T10:18:09;0.10;93.10
32217;DHT22;67098;51.140;4.088;2024-01-11T10:20:35;0.20;93.20
32217;DHT22;67098;51.140;4.088;2024-01-11T10:23:02;0.30;93.30
32217;DHT22;67098;51.140;4.088;2024-01-11T10:25:28;0.30;93.00
32217;DHT22;67098;51.140;4.088;2024-01-11T10:27:54;0.30;93.10
32217;DHT22;67098;51.140;4.088;2024-01-11T10:30:20;0.40;93.20
32217;DHT22;67098;51.140;4.088;2024-01-11T10:32:49;0.40;93.10
32217;DHT22;67098;51.140;4.088;2024-01-11T10:35:15;0.40;93.20
32217;DHT22;67098;51.140;4.088;2024-01-11T10:37:44;0.50;92.90
32217;DHT22;67098;51.140;4.088;2024-01-11T10:40:10;0.60;92.70
32217;DHT22;67098;51.140;4.088;2024-01-11T10:42:45;0.60;92.70
32217;DHT22;67098;51.140;4.088;2024-01-11T10:45:18;0.60;92.60
32217;DHT22;67098;51.140;4.088;2024-01-11T10:48:01;0.70;92.60
32217;DHT22;67098;51.140;4.088;2024-01-11T10:50:32;0.80;92.50
32217;DHT22;67098;51.140;4.088;2024-01-11T10:55:33;0.80;92.70
32217;DHT22;67098;51.140;4.088;2024-01-11T10:58:00;0.70;92.90
32217;DHT22;67098;51.140;4.088;2024-01-11T11:00:28;0.70;93.00
32217;DHT22;67098;51.140;4.088;2024-01-11T11:02:55;0.80;93.00
32217;DHT22;67098;51.140;4.088;2024-01-11T11:05:21;0.90;93.00
32217;DHT22;67098;51.140;4.088;2024-01-11T11:07:51;0.90;92.90
32217;DHT22;67098;51.140;4.088;2024-01-11T11:10:19;0.90;92.70
32217;DHT22;67098;51.140;4.088;2024-01-11T11:12:45;1.00;92.50
32217;DHT22;67098;51.140;4.088;2024-01-11T11:15:12;1.00;92.50
32217;DHT22;67098;51.140;4.088;2024-01-11T11:17:39;1.10;92.40
32217;DHT22;67098;51.140;4.088;2024-01-11T11:20:07;1.20;92.50
32217;DHT22;67098;51.140;4.088;2024-01-11T11:22:39;1.20;92.40
32217;DHT22;67098;51.140;4.088;2024-01-11T11:25:24;1.20;92.50
32217;DHT22;67098;51.140;4.088;2024-01-11T11:27:50;1.40;92.20
32217;DHT22;67098;51.140;4.088;2024-01-11T11:30:19;1.30;92.20
32217;DHT22;67098;51.140;4.088;2024-01-11T11:32:45;1.40;92.20
32217;DHT22;67098;51.140;4.088;2024-01-11T11:35:11;1.40;92.20
32217;DHT22;67098;51.140;4.088;2024-01-11T11:37:38;1.50;92.40
32217;DHT22;67098;51.140;4.088;2024-01-11T11:40:13;1.50;92.50
32217;DHT22;67098;51.140;4.088;2024-01-11T11:42:39;1.60;92.50
32217;DHT22;67098;51.140;4.088;2024-01-11T11:45:07;1.70;92.40
32217;DHT22;67098;51.140;4.088;2024-01-11T11:47:37;1.80;92.10
32217;DHT22;67098;51.140;4.088;2024-01-11T11:50:08;1.80;92.10
32217;DHT22;67098;51.140;4.088;2024-01-11T11:52:37;1.90;92.00
32217;DHT22;67098;51.140;4.088;2024-01-11T11:55:04;1.90;91.90
32217;DHT22;67098;51.140;4.088;2024-01-11T11:57:31;2.00;91.70
32217;DHT22;67098;51.140;4.088;2024-01-11T11:59:58;2.00;91.60
32217;DHT22;67098;51.140;4.088;2024-01-11T12:02:25;1.90;91.70
32217;DHT22;67098;51.140;4.088;2024-01-11T12:04:53;2.00;91.20
32217;DHT22;67098;51.140;4.088;2024-01-11T12:07:23;2.00;91.10
32217;DHT22;67098;51.140;4.088;2024-01-11T12:09:51;2.10;91.20
32217;DHT22;67098;51.140;4.088;2024-01-11T12:12:17;2.10;91.10
32217;DHT22;67098;51.140;4.088;2024-01-11T12:14:43;2.10;91.00
32217;DHT22;67098;51.140;4.088;2024-01-11T12:17:09;2.20;91.00
32217;DHT22;67098;51.140;4.088;2024-01-11T12:19:35;2.00;91.20
32217;DHT22;67098;51.140;4.088;2024-01-11T12:22:01;2.00;91.30
32217;DHT22;67098;51.140;4.088;2024-01-11T12:24:27;2.00;91.60
32217;DHT22;67098;51.140;4.088;2024-01-11T12:26:56;2.10;91.80
32217;DHT22;67098;51.140;4.088;2024-01-11T12:29:23;2.30;91.20
32217;DHT22;67098;51.140;4.088;2024-01-11T12:31:50;2.40;91.00
32217;DHT22;67098;51.140;4.088;2024-01-11T12:34:16;2.50;91.10
32217;DHT22;67098;51.140;4.088;2024-01-11T12:36:42;2.50;91.10
32217;DHT22;67098;51.140;4.088;2024-01-11T12:39:10;2.50;91.10
32217;DHT22;67098;51.140;4.088;2024-01-11T12:41:39;2.60;90.80
32217;DHT22;67098;51.140;4.088;2024-01-11T12:44:05;2.50;90.60
32217;DHT22;67098;51.140;4.088;2024-01-11T12:46:31;2.50;91.00
32217;DHT22;67098;51.140;4.088;2024-01-11T12:48:58;2.40;90.90
32217;DHT22;67098;51.140;4.088;2024-01-11T12:51:25;2.50;90.60
32217;DHT22;67098;51.140;4.088;2024-01-11T12:53:52;2.50;90.60
32217;DHT22;67098;51.140;4.088;2024-01-11T12:56:19;2.60;89.80
32217;DHT22;67098;51.140;4.088;2024-01-11T12:58:47;2.70;89.40
32217;DHT22;67098;51.140;4.088;2024-01-11T13:01:13;2.80;88.50
32217;DHT22;67098;51.140;4.088;2024-01-11T13:03:44;2.70;88.80
32217;DHT22;67098;51.140;4.088;2024-01-11T13:06:12;2.60;88.90
32217;DHT22;67098;51.140;4.088;2024-01-11T13:08:38;2.70;88.50
32217;DHT22;67098;51.140;4.088;2024-01-11T13:11:07;2.90;87.00
32217;DHT22;67098;51.140;4.088;2024-01-11T13:13:34;2.90;86.50
32217;DHT22;67098;51.140;4.088;2024-01-11T13:16:00;2.90;87.10
32217;DHT22;67098;51.140;4.088;2024-01-11T13:18:26;3.00;87.30
32217;DHT22;67098;51.140;4.088;2024-01-11T13:20:52;3.00;86.00
32217;DHT22;67098;51.140;4.088;2024-01-11T13:23:19;3.00;85.00
32217;DHT22;67098;51.140;4.088;2024-01-11T13:25:50;3.10;84.50
32217;DHT22;67098;51.140;4.088;2024-01-11T13:28:16;3.10;84.00
32217;DHT22;67098;51.140;4.088;2024-01-11T13:30:45;3.10;83.30
32217;DHT22;67098;51.140;4.088;2024-01-11T13:33:11;3.10;83.20
32217;DHT22;67098;51.140;4.088;2024-01-11T13:35:39;3.10;83.30
32217;DHT22;67098;51.140;4.088;2024-01-11T13:38:05;3.30;83.50
32217;DHT22;67098;51.140;4.088;2024-01-11T13:40:31;3.30;84.00
32217;DHT22;67098;51.140;4.088;2024-01-11T13:42:57;3.40;84.80
32217;DHT22;67098;51.140;4.088;2024-01-11T13:45:24;3.40;86.00
32217;DHT22;67098;51.140;4.088;2024-01-11T13:47:53;3.30;87.90
32217;DHT22;67098;51.140;4.088;2024-01-11T13:50:20;3.40;88.80
32217;DHT22;67098;51.140;4.088;2024-01-11T13:52:46;3.30;89.80
32217;DHT22;67098;51.140;4.088;2024-01-11T13:55:12;3.40;90.00
32217;DHT22;67098;51.140;4.088;2024-01-11T13:57:39;3.50;90.30
32217;DHT22;67098;51.140;4.088;2024-01-11T14:00:05;3.60;90.60
32217;DHT22;67098;51.140;4.088;2024-01-11T14:02:32;3.70;90.70
32217;DHT22;67098;51.140;4.088;2024-01-11T14:04:58;3.80;90.80
32217;DHT22;67098;51.140;4.088;2024-01-11T14:07:24;3.90;90.80
32217;DHT22;67098;51.140;4.088;2024-01-11T14:09:51;4.00;91.20
32217;DHT22;67098;51.140;4.088;2024-01-11T14:12:17;4.00;91.60
32217;DHT22;67098;51.140;4.088;2024-01-11T14:14:43;4.30;91.80
32217;DHT22;67098;51.140;4.088;2024-01-11T14:17:09;4.40;92.10
32217;DHT22;67098;51.140;4.088;2024-01-11T14:19:35;4.50;92.30
32217;DHT22;67098;51.140;4.088;2024-01-11T14:22:01;4.80;92.10
32217;DHT22;67098;51.140;4.088;2024-01-11T14:24:27;4.90;91.70
32217;DHT22;67098;51.140;4.088;2024-01-11T14:26:54;4.90;91.50
32217;DHT22;67098;51.140;4.088;2024-01-11T14:29:19;4.80;91.90
32217;DHT22;67098;51.140;4.088;2024-01-11T14:31:45;4.90;91.90
32217;DHT22;67098;51.140;4.088;2024-01-11T14:34:11;5.00;92.00
32217;DHT22;67098;51.140;4.088;2024-01-11T14:36:37;5.00;92.00
32217;DHT22;67098;51.140;4.088;2024-01-11T14:39:03;4.80;92.30
32217;DHT22;67098;51.140;4.088;2024-01-11T14:41:30;4.60;93.00
32217;DHT22;67098;51.140;4.088;2024-01-11T14:43:57;4.40;93.40
32217;DHT22;67098;51.140;4.088;2024-01-11T14:46:23;4.20;93.90
32217;DHT22;67098;51.140;4.088;2024-01-11T14:48:48;4.20;94.00
32217;DHT22;67098;51.140;4.088;2024-01-11T14:51:14;4.20;94.10
32217;DHT22;67098;51.140;4.088;2024-01-11T14:53:41;4.30;94.10
32217;DHT22;67098;51.140;4.088;2024-01-11T14:56:07;4.20;94.20
32217;DHT22;67098;51.140;4.088;2024-01-11T14:58:33;4.20;94.60
32217;DHT22;67098;51.140;4.088;2024-01-11T15:00:59;4.10;94.70
32217;DHT22;67098;51.140;4.088;2024-01-11T15:03:24;4.00;95.10
32217;DHT22;67098;51.140;4.088;2024-01-11T15:05:52;3.90;95.50
32217;DHT22;67098;51.140;4.088;2024-01-11T15:08:19;3.90;95.60
32217;DHT22;67098;51.140;4.088;2024-01-11T15:10:48;4.00;95.60
32217;DHT22;67098;51.140;4.088;2024-01-11T15:13:14;4.00;95.60
32217;DHT22;67098;51.140;4.088;2024-01-11T15:15:40;4.10;95.70
32217;DHT22;67098;51.140;4.088;2024-01-11T15:18:06;4.10;95.60
32217;DHT22;67098;51.140;4.088;2024-01-11T15:20:32;4.10;95.60
32217;DHT22;67098;51.140;4.088;2024-01-11T15:22:57;4.10;95.70
32217;DHT22;67098;51.140;4.088;2024-01-11T15:25:23;4.10;95.70
32217;DHT22;67098;51.140;4.088;2024-01-11T15:27:53;4.20;95.70
32217;DHT22;67098;51.140;4.088;2024-01-11T15:30:19;4.20;95.80
32217;DHT22;67098;51.140;4.088;2024-01-11T15:32:44;4.30;95.70
32217;DHT22;67098;51.140;4.088;2024-01-11T15:35:10;4.30;95.60
32217;DHT22;67098;51.140;4.088;2024-01-11T15:37:37;4.30;95.70